Time;durP1;ratioP1;P1;durP2;ratioP2;P2;SDS_P1;SDS_P2;PMS_P1;PMS_P2;Temp;Humidity;BMP_temperature;BMP_pressure;BME280_temperature;BME280_humidity;BME280_pressure;Samples;Min_cycle;Max_cycle;Signal;HPM_P1;HPM_P2
2023/04/18 00:00:39;;;;;;;14.40;10.58;;;;;;;7.10;78.02;100922.26;1745608;82;21015;-65
2023/04/18 00:03:08;;;;;;;15.32;12.43;;;;;;;7.10;77.78;100927.45;1716574;82;21046;-68
2023/04/18 00:05:35;;;;;;;16.23;12.30;;;;;;;7.03;77.99;100921.91;1736051;81;21061;-68
2023/04/18 00:08:02;;;;;;;17.07;11.88;;;;;;;7.02;78.02;100918.91;1733693;81;21670;-68
2023/04/18 00:10:29;;;;;;;16.77;11.83;;;;;;;7.05;78.19;100921.45;1732581;81;21093;-65
2023/04/18 00:12:56;;;;;;;17.10;13.13;;;;;;;7.05;78.19;100923.61;1734504;81;21045;-68
2023/04/18 00:15:23;;;;;;;16.82;11.85;;;;;;;7.06;78.25;100921.90;1734541;82;20998;-65
2023/04/18 00:17:50;;;;;;;20.83;11.97;;;;;;;7.10;78.43;100928.75;1730109;82;20942;-65
2023/04/18 00:20:16;;;;;;;15.03;11.88;;;;;;;7.11;78.42;100920.07;1703081;82;21015;-66
2023/04/18 00:22:43;;;;;;;15.38;12.60;;;;;;;7.15;78.44;100929.55;1731512;82;20983;-65
2023/04/18 00:25:10;;;;;;;14.95;12.23;;;;;;;7.14;78.39;100928.70;1738540;81;21450;-68
2023/04/18 00:27:38;;;;;;;17.15;12.03;;;;;;;7.15;78.28;100926.95;1724392;81;21026;-68
2023/04/18 00:30:07;;;;;;;18.17;12.13;;;;;;;7.11;78.27;100927.86;1739756;82;21043;-65
2023/04/18 00:32:33;;;;;;;19.05;12.60;;;;;;;7.10;78.53;100926.16;1710467;82;21097;-65
2023/04/18 00:35:03;;;;;;;16.93;12.78;;;;;;;7.13;78.67;100933.91;1732229;81;20948;-65
2023/04/18 00:37:29;;;;;;;20.27;12.37;;;;;;;7.19;78.70;100931.21;1738987;80;21013;-68
2023/04/18 00:39:55;;;;;;;20.10;13.50;;;;;;;7.21;78.71;100926.86;1737758;81;21046;-67
2023/04/18 00:42:24;;;;;;;16.05;13.58;;;;;;;7.21;78.66;100926.86;1730843;81;21069;-67
2023/04/18 00:44:50;;;;;;;19.90;15.03;;;;;;;7.23;78.77;100925.11;1754474;80;21046;-65
2023/04/18 00:47:16;;;;;;;20.72;13.03;;;;;;;7.27;78.83;100921.58;1759616;80;21042;-65
2023/04/18 00:49:45;;;;;;;18.05;13.65;;;;;;;7.30;78.76;100924.13;1758753;80;20971;-67
2023/04/18 00:52:11;;;;;;;19.37;13.20;;;;;;;7.27;78.71;100918.13;1725074;81;21075;-65
2023/04/18 00:54:39;;;;;;;15.80;13.48;;;;;;;7.29;78.84;100925.02;1728815;81;21178;-65
2023/04/18 00:57:06;;;;;;;18.15;13.13;;;;;;;7.27;78.74;100925.47;1733608;81;21096;-65
2023/04/18 00:59:37;;;;;;;20.48;13.38;;;;;;;7.27;78.95;100920.72;1725799;81;21017;-68
2023/04/18 01:02:03;;;;;;;20.32;13.50;;;;;;;7.27;78.88;100931.11;1729134;81;20994;-67
2023/04/18 01:04:31;;;;;;;20.35;13.80;;;;;;;7.29;79.02;100930.21;1728949;81;21089;-65
2023/04/18 01:06:58;;;;;;;22.30;13.20;;;;;;;7.31;78.95;100927.16;1723570;81;21675;-66
2023/04/18 01:09:25;;;;;;;19.90;14.23;;;;;;;7.32;78.88;100943.16;1728335;81;20990;-66
2023/04/18 01:11:51;;;;;;;16.05;12.88;;;;;;;7.35;79.06;100937.91;1730536;81;21128;-65
2023/04/18 01:14:19;;;;;;;18.60;13.75;;;;;;;7.37;79.03;100933.56;1730710;81;21103;-67
2023/04/18 01:16:47;;;;;;;17.32;13.75;;;;;;;7.38;79.01;100940.91;1733011;81;21116;-68
2023/04/18 01:19:15;;;;;;;21.87;12.98;;;;;;;7.40;79.14;100936.11;1726595;81;21045;-68
2023/04/18 01:21:42;;;;;;;22.45;14.28;;;;;;;7.40;79.07;100932.66;1727346;81;21022;-65
2023/04/18 01:24:11;;;;;;;21.45;14.28;;;;;;;7.40;79.05;100938.71;1728644;81;20970;-67
2023/04/18 01:26:38;;;;;;;23.67;14.38;;;;;;;7.42;79.17;100930.02;1728480;81;21021;-66
2023/04/18 01:29:04;;;;;;;22.73;15.53;;;;;;;7.43;79.22;100931.76;1729078;81;20982;-67
2023/04/18 01:31:36;;;;;;;16.75;12.93;;;;;;;7.40;79.11;100928.77;1729953;81;21021;-68
2023/04/18 01:34:03;;;;;;;20.17;14.15;;;;;;;7.32;78.90;100934.06;1732260;81;21039;-66
2023/04/18 01:36:30;;;;;;;22.42;14.98;;;;;;;7.33;79.18;100944.01;1726778;81;21657;-66
2023/04/18 01:38:58;;;;;;;23.55;15.28;;;;;;;7.36;79.25;100934.42;1730329;81;21481;-65
2023/04/18 01:41:24;;;;;;;20.08;15.28;;;;;;;7.38;79.33;100935.71;1722182;81;21001;-65
2023/04/18 01:43:51;;;;;;;20.75;14.73;;;;;;;7.42;79.32;100937.81;1729657;82;21133;-64
2023/04/18 01:46:17;;;;;;;22.45;15.68;;;;;;;7.43;79.24;100936.95;1720690;82;21019;-65
2023/04/18 01:48:43;;;;;;;22.50;15.55;;;;;;;7.42;79.27;100933.92;1729561;81;21141;-66
2023/04/18 01:51:10;;;;;;;18.30;14.65;;;;;;;7.45;79.49;100932.57;1723197;81;21025;-67
2023/04/18 01:53:36;;;;;;;24.55;15.38;;;;;;;7.40;79.16;100932.21;1720963;82;20978;-65
2023/04/18 01:56:02;;;;;;;20.77;16.57;;;;;;;7.35;79.20;100928.81;1724217;81;21004;-67
2023/04/18 01:58:28;;;;;;;22.65;15.93;;;;;;;7.36;79.35;100930.97;1723953;81;21147;-66
2023/04/18 02:00:58;;;;;;;22.42;14.87;;;;;;;7.34;79.44;100925.81;1728754;81;21468;-69
2023/04/18 02:03:24;;;;;;;20.40;15.88;;;;;;;7.31;79.35;100931.06;1725937;81;21067;-66
2023/04/18 02:05:51;;;;;;;27.50;15.90;;;;;;;7.29;79.53;100925.02;1727747;81;21465;-68
2023/04/18 02:08:17;;;;;;;24.95;16.82;;;;;;;7.30;79.70;100920.23;1724402;81;21555;-66
2023/04/18 02:10:43;;;;;;;22.98;15.75;;;;;;;7.32;79.63;100924.97;1730073;81;21506;-68
2023/04/18 02:13:13;;;;;;;24.92;15.68;;;;;;;7.35;79.76;100915.83;1721689;81;21601;-65
2023/04/18 02:15:39;;;;;;;33.25;16.30;;;;;;;7.35;79.63;100919.73;1722463;82;20971;-67
2023/04/18 02:18:06;;;;;;;24.05;17.35;;;;;;;7.38;79.72;100926.62;1721850;82;21116;-68
2023/04/18 02:20:32;;;;;;;23.32;15.48;;;;;;;7.38;79.75;100924.87;1717766;81;21079;-66
2023/04/18 02:23:00;;;;;;;27.70;16.57;;;;;;;7.40;79.84;100920.52;1726952;81;21023;-66
2023/04/18 02:25:27;;;;;;;21.60;15.68;;;;;;;7.43;79.84;100929.16;1726620;81;21099;-66
2023/04/18 02:27:55;;;;;;;24.23;17.45;;;;;;;7.45;79.85;100923.48;1719564;82;21012;-65
2023/04/18 02:30:22;;;;;;;24.15;16.27;;;;;;;7.39;79.71;100921.41;1719480;82;21553;-67
2023/04/18 02:32:55;;;;;;;23.47;16.90;;;;;;;7.39;79.83;100920.11;1723122;81;22077;-66
2023/04/18 02:35:23;;;;;;;22.20;16.32;;;;;;;7.37;79.77;100919.27;1722975;81;21011;-65
2023/04/18 02:37:49;;;;;;;23.05;16.52;;;;;;;7.39;79.97;100913.62;1722645;82;21059;-65
2023/04/18 02:40:16;;;;;;;22.05;15.80;;;;;;;7.42;80.01;100914.43;1719792;81;21531;-66
2023/04/18 02:42:42;;;;;;;21.25;15.18;;;;;;;7.40;79.94;100915.33;1718138;82;21043;-65
2023/04/18 02:45:09;;;;;;;21.68;15.30;;;;;;;7.38;79.92;100917.08;1715667;82;21088;-67
2023/04/18 02:47:37;;;;;;;26.95;15.38;;;;;;;7.31;80.04;100914.17;1723820;82;21093;-68
2023/04/18 02:50:05;;;;;;;20.15;14.13;;;;;;;7.30;80.14;100916.33;1716103;82;21044;-67
2023/04/18 02:52:31;;;;;;;18.02;14.23;;;;;;;7.28;80.02;100919.41;1714775;82;20984;-68
2023/04/18 02:54:58;;;;;;;18.25;14.87;;;;;;;7.26;80.18;100914.67;1716718;82;21200;-67
2023/04/18 02:57:24;;;;;;;21.45;15.63;;;;;;;7.28;80.20;100913.33;1716257;82;21135;-68
2023/04/18 02:59:50;;;;;;;20.62;14.50;;;;;;;7.26;80.32;100912.08;1720618;82;21141;-67
2023/04/18 03:02:17;;;;;;;25.57;15.43;;;;;;;7.21;80.20;100916.47;1728776;82;21138;-68
2023/04/18 03:04:44;;;;;;;19.35;15.13;;;;;;;7.17;80.33;100909.62;1714080;81;21121;-66
2023/04/18 03:07:10;;;;;;;17.57;14.45;;;;;;;7.15;80.31;100911.37;1714406;82;21152;-65
2023/04/18 03:09:36;;;;;;;18.67;15.25;;;;;;;7.09;80.27;100911.47;1718969;82;21077;-68
2023/04/18 03:12:02;;;;;;;17.07;13.40;;;;;;;7.04;80.37;100919.31;1719388;82;21037;-67
2023/04/18 03:14:29;;;;;;;16.57;14.18;;;;;;;7.04;80.58;100918.45;1715863;82;21041;-66
2023/04/18 03:16:56;;;;;;;17.00;13.60;;;;;;;7.04;80.53;100914.56;1716248;82;21062;-68
2023/04/18 03:19:23;;;;;;;20.65;13.83;;;;;;;7.00;80.57;100917.64;1718613;82;21056;-68
2023/04/18 03:21:49;;;;;;;17.23;13.57;;;;;;;7.00;80.75;100918.06;1718569;82;21538;-66
2023/04/18 03:24:17;;;;;;;16.97;13.03;;;;;;;7.04;80.92;100921.91;1713421;82;21138;-67
2023/04/18 03:26:44;;;;;;;16.82;13.62;;;;;;;7.06;80.85;100921.90;1718810;82;21085;-67
2023/04/18 03:29:11;;;;;;;17.77;13.38;;;;;;;7.05;80.95;100923.61;1712542;82;21063;-67
2023/04/18 03:31:37;;;;;;;16.93;13.70;;;;;;;7.05;80.90;100925.36;1715631;82;21044;-68
2023/04/18 03:34:04;;;;;;;17.70;14.47;;;;;;;7.05;80.95;100914.97;1714664;82;21067;-65
2023/04/18 03:36:30;;;;;;;17.42;13.53;;;;;;;7.04;81.02;100921.05;1714324;82;21087;-66
2023/04/18 03:38:56;;;;;;;17.95;13.40;;;;;;;7.04;80.77;100918.45;1724160;82;21075;-68
2023/04/18 03:41:23;;;;;;;17.40;13.22;;;;;;;6.97;80.70;100927.19;1714371;82;21024;-65
2023/04/18 03:43:49;;;;;;;19.07;14.03;;;;;;;6.92;81.07;100925.53;1722529;81;21641;-67
2023/04/18 03:46:16;;;;;;;17.37;13.35;;;;;;;6.94;81.35;100926.34;1726516;81;21105;-65
2023/04/18 03:48:42;;;;;;;16.55;14.43;;;;;;;6.98;81.40;100927.19;1728415;81;21086;-67
2023/04/18 03:51:08;;;;;;;16.90;13.72;;;;;;;7.01;81.49;100931.48;1732177;81;21547;-66
2023/04/18 03:53:35;;;;;;;18.65;13.85;;;;;;;7.05;81.57;100920.16;1725658;81;21525;-66
2023/04/18 03:56:02;;;;;;;18.80;13.58;;;;;;;7.08;81.54;100930.50;1732660;81;21739;-66
2023/04/18 03:58:28;;;;;;;17.95;13.85;;;;;;;7.08;81.40;100930.50;1762190;80;21576;-67
2023/04/18 04:00:59;;;;;;;16.80;14.80;;;;;;;7.05;81.41;100924.05;1758901;80;21580;-68
2023/04/18 04:03:26;;;;;;;19.50;14.38;;;;;;;7.08;81.63;100935.25;1732653;81;21606;-65
2023/04/18 04:05:55;;;;;;;15.88;12.82;;;;;;;7.09;81.59;100933.09;1757872;80;21568;-68
2023/04/18 04:08:21;;;;;;;16.85;13.18;;;;;;;7.12;81.70;100932.20;1754639;81;21025;-67
2023/04/18 04:10:47;;;;;;;16.85;13.93;;;;;;;7.14;81.73;100933.89;1761853;80;21058;-67
2023/04/18 04:13:14;;;;;;;21.95;14.78;;;;;;;7.14;81.64;100935.61;1760224;80;21043;-66
2023/04/18 04:15:40;;;;;;;17.98;13.35;;;;;;;7.16;81.77;100931.27;1756942;80;21077;-66
2023/04/18 04:18:07;;;;;;;15.65;13.25;;;;;;;7.17;81.78;100935.59;1757990;80;21156;-67
2023/04/18 04:20:34;;;;;;;18.95;12.93;;;;;;;7.13;81.56;100936.50;1760550;80;21045;-66
2023/04/18 04:23:00;;;;;;;16.65;13.43;;;;;;;7.11;81.85;100937.84;1738375;81;21123;-67
2023/04/18 04:25:32;;;;;;;14.70;13.18;;;;;;;7.16;82.12;100943.80;1762818;80;20986;-67
2023/04/18 04:28:01;;;;;;;17.15;13.20;;;;;;;7.24;82.10;100942.41;1737162;81;21841;-68
2023/04/18 04:30:27;;;;;;;17.50;12.75;;;;;;;7.29;82.14;100948.40;1758366;80;21048;-67
2023/04/18 04:32:54;;;;;;;14.78;13.18;;;;;;;7.35;82.04;100949.61;1734553;81;21041;-68
2023/04/18 04:35:20;;;;;;;17.95;13.53;;;;;;;7.37;81.99;100938.76;1763023;80;21018;-66
2023/04/18 04:37:47;;;;;;;15.75;13.72;;;;;;;7.42;82.02;100948.20;1757531;80;21002;-66
2023/04/18 04:40:14;;;;;;;19.70;13.70;;;;;;;7.45;81.99;100951.64;1706323;82;21140;-65
2023/04/18 04:42:41;;;;;;;21.55;14.63;;;;;;;7.47;81.98;100955.50;1757596;80;20994;-67
2023/04/18 04:45:09;;;;;;;15.65;13.88;;;;;;;7.49;82.01;100960.25;1759749;80;21052;-67
2023/04/18 04:47:35;;;;;;;18.62;14.10;;;;;;;7.49;81.96;100957.65;1758618;80;21096;-65
2023/04/18 04:50:03;;;;;;;19.98;13.98;;;;;;;7.52;82.06;100955.00;1757795;80;21611;-66
2023/04/18 04:52:31;;;;;;;18.10;14.63;;;;;;;7.63;82.49;100955.70;1732882;82;21037;-68
2023/04/18 04:54:57;;;;;;;18.92;14.40;;;;;;;7.79;82.70;100958.92;1737616;81;21069;-66
2023/04/18 04:57:23;;;;;;;20.27;16.52;;;;;;;7.92;82.55;100954.36;1734597;81;20984;-68
2023/04/18 04:59:51;;;;;;;22.95;16.67;;;;;;;8.06;82.60;100952.38;1709298;81;21480;-68
2023/04/18 05:02:21;;;;;;;22.30;15.48;;;;;;;8.14;82.21;100959.61;1733268;81;21518;-68
2023/04/18 05:04:46;;;;;;;19.67;15.83;;;;;;;8.20;82.24;100963.41;1753191;80;21061;-65
2023/04/18 05:07:12;;;;;;;22.62;15.90;;;;;;;8.29;82.27;100959.36;1724981;83;21027;-66
2023/04/18 05:09:39;;;;;;;16.93;14.53;;;;;;;8.37;82.17;100962.25;1708380;82;21071;-65
2023/04/18 05:12:06;;;;;;;16.80;13.68;;;;;;;8.45;82.15;100966.91;1756392;80;20986;-65
2023/04/18 05:14:32;;;;;;;16.50;13.83;;;;;;;8.53;82.39;100965.02;1757791;80;21018;-66
2023/04/18 05:16:59;;;;;;;18.37;14.68;;;;;;;8.66;82.42;100969.11;1761488;80;21073;-66
2023/04/18 05:19:25;;;;;;;21.33;13.70;;;;;;;8.81;82.53;100970.99;1759646;80;21065;-66
2023/04/18 05:21:51;;;;;;;20.25;13.88;;;;;;;9.05;82.78;100967.89;1758767;80;21017;-66
2023/04/18 05:24:18;;;;;;;16.95;14.10;;;;;;;9.33;82.93;100970.76;1758303;80;21002;-69
2023/04/18 05:26:44;;;;;;;17.85;13.85;;;;;;;9.59;82.86;100970.16;1758887;80;21052;-67
2023/04/18 05:29:11;;;;;;;15.93;13.32;;;;;;;9.97;83.17;100964.90;1758075;80;21002;-68
2023/04/18 05:31:40;;;;;;;10.63;9.45;;;;;;;10.20;82.62;100961.73;1753209;80;20994;-63
2023/04/18 05:34:06;;;;;;;16.80;12.10;;;;;;;10.47;82.50;100966.26;1757230;80;20971;-64
2023/04/18 05:36:33;;;;;;;13.55;10.25;;;;;;;10.67;82.14;100962.22;1760231;80;21085;-64
2023/04/18 05:38:59;;;;;;;13.62;11.03;;;;;;;10.83;81.96;100967.42;1760870;80;21042;-62
2023/04/18 05:41:25;;;;;;;13.08;10.32;;;;;;;10.83;81.71;100967.42;1758138;80;20981;-65
2023/04/18 05:43:52;;;;;;;14.95;10.15;;;;;;;10.95;81.80;100960.55;1755025;81;21600;-63
2023/04/18 05:46:19;;;;;;;11.80;9.93;;;;;;;11.01;81.54;100960.83;1757969;79;21128;-62
2023/04/18 05:48:45;;;;;;;9.95;8.63;;;;;;;11.04;81.05;100962.50;1756969;80;21057;-61
2023/04/18 05:51:12;;;;;;;8.93;8.00;;;;;;;10.73;80.37;100971.21;1763589;80;20955;-62
2023/04/18 05:53:38;;;;;;;8.90;7.70;;;;;;;10.56;80.20;100969.48;1756041;80;21053;-63
2023/04/18 05:56:06;;;;;;;9.13;7.67;;;;;;;10.41;80.84;100967.70;1758313;80;21057;-62
2023/04/18 05:58:32;;;;;;;8.88;7.45;;;;;;;10.40;81.46;100964.70;1754256;80;20983;-62
2023/04/18 06:00:58;;;;;;;10.25;7.67;;;;;;;10.58;80.98;100965.09;1755108;80;21041;-65
2023/04/18 06:03:24;;;;;;;8.58;7.10;;;;;;;10.40;80.83;100964.70;1756508;80;21063;-62
2023/04/18 06:05:50;;;;;;;10.13;7.45;;;;;;;10.42;81.16;100968.13;1753927;80;21001;-66
2023/04/18 06:08:17;;;;;;;8.18;6.25;;;;;;;10.63;81.10;100967.13;1754926;81;21580;-66
2023/04/18 06:10:43;;;;;;;8.05;7.00;;;;;;;10.70;80.70;100968.69;1755476;80;20970;-63
2023/04/18 06:13:09;;;;;;;7.62;6.30;;;;;;;10.88;81.08;100964.23;1758401;80;21145;-64
2023/04/18 06:15:36;;;;;;;9.73;6.47;;;;;;;10.65;80.17;100968.80;1753175;80;21004;-64
2023/04/18 06:18:02;;;;;;;7.92;6.72;;;;;;;10.65;80.17;100968.80;1754139;80;20978;-64
2023/04/18 06:20:30;;;;;;;9.23;6.42;;;;;;;10.90;80.72;100963.75;1760813;80;21099;-63
2023/04/18 06:22:56;;;;;;;7.35;6.62;;;;;;;11.09;79.32;100971.91;1751894;80;21060;-65
2023/04/18 06:25:23;;;;;;;6.45;5.83;;;;;;;10.95;78.86;100972.31;1731691;80;21072;-63
2023/04/18 06:27:50;;;;;;;8.95;6.50;;;;;;;11.09;79.62;100971.03;1731608;81;21068;-65
2023/04/18 06:30:18;;;;;;;7.33;5.72;;;;;;;11.35;79.84;100971.12;1756667;80;21176;-66
2023/04/18 06:32:44;;;;;;;7.20;5.83;;;;;;;11.48;79.33;100969.42;1750274;80;21094;-63
2023/04/18 06:35:10;;;;;;;7.95;6.55;;;;;;;11.82;80.15;100967.47;1758681;80;21034;-66
2023/04/18 06:37:37;;;;;;;9.88;6.17;;;;;;;11.98;79.20;100974.83;1753564;80;21112;-66
2023/04/18 06:40:04;;;;;;;5.75;5.15;;;;;;;12.34;79.57;100966.64;1753550;80;20998;-65
2023/04/18 06:42:31;;;;;;;6.50;5.10;;;;;;;12.63;77.66;100974.78;1758624;80;20990;-72
2023/04/18 06:44:57;;;;;;;8.73;6.08;;;;;;;12.70;77.70;100974.97;1750916;80;21117;-64
2023/04/18 06:47:23;;;;;;;9.48;4.83;;;;;;;12.54;76.81;100970.72;1748042;80;21157;-63
2023/04/18 06:49:49;;;;;;;9.68;5.40;;;;;;;12.70;77.20;100970.58;1744214;80;20993;-63
2023/04/18 06:52:15;;;;;;;8.28;5.65;;;;;;;12.95;76.87;100974.93;1751291;80;21025;-63
2023/04/18 06:54:42;;;;;;;7.10;5.33;;;;;;;13.15;76.83;100967.16;1751820;80;21054;-65
2023/04/18 06:57:08;;;;;;;7.72;5.42;;;;;;;13.46;76.78;100973.03;1747779;80;21022;-63
2023/04/18 06:59:36;;;;;;;5.45;4.78;;;;;;;13.47;76.04;100983.48;1743190;80;21119;-63
2023/04/18 07:02:02;;;;;;;6.05;5.05;;;;;;;12.98;74.62;100974.81;1741831;81;20990;-64
2023/04/18 07:04:28;;;;;;;7.08;4.83;;;;;;;13.14;76.43;100971.17;1742347;80;21074;-69
2023/04/18 07:06:55;;;;;;;6.25;4.45;;;;;;;13.54;75.59;100973.13;1740216;80;21560;-65
2023/04/18 07:09:22;;;;;;;5.03;4.37;;;;;;;14.09;75.78;100972.19;1748883;80;21563;-64
2023/04/18 07:11:51;;;;;;;6.85;4.78;;;;;;;14.59;75.68;100974.04;1731249;81;21081;-69
2023/04/18 07:14:20;;;;;;;6.28;4.47;;;;;;;15.07;75.89;100968.80;1748072;80;21034;-64
2023/04/18 07:16:52;;;;;;;6.22;5.00;;;;;;;15.77;76.00;100958.92;1747059;80;21147;-64
2023/04/18 07:19:17;;;;;;;8.28;4.67;;;;;;;16.03;73.76;100962.89;1740592;81;21049;-66
2023/04/18 07:21:56;;;;;;;7.27;5.03;;;;;;;16.57;74.36;100966.72;1750980;80;21048;-64
2023/04/18 07:24:18;;;;;;;5.75;4.25;;;;;;;17.05;75.25;100951.86;1712078;81;21053;-66
2023/04/18 07:26:46;;;;;;;5.35;4.58;;;;;;;17.62;74.95;100965.41;1728311;81;21049;-67
2023/04/18 07:29:13;;;;;;;6.35;4.37;;;;;;;17.02;72.61;100973.62;1725877;81;21037;-66
2023/04/18 07:31:39;;;;;;;7.00;5.27;;;;;;;16.81;73.64;100969.05;1719884;81;21086;-64
2023/04/18 07:34:10;;;;;;;6.37;4.10;;;;;;;16.81;73.97;100966.41;1729732;81;21071;-64
2023/04/18 07:36:33;;;;;;;7.67;4.40;;;;;;;17.58;72.85;100967.82;1712461;82;21111;-65
2023/04/18 07:39:01;;;;;;;4.50;4.08;;;;;;;17.52;69.12;100977.42;1709797;82;21067;-63
2023/04/18 07:41:27;;;;;;;5.08;4.55;;;;;;;16.95;70.17;100974.42;1715231;82;21194;-65
2023/04/18 07:43:53;;;;;;;6.60;4.80;;;;;;;16.88;71.53;100963.80;1711780;83;21126;-66
2023/04/18 07:46:20;;;;;;;3.90;3.50;;;;;;;18.00;72.27;100970.28;1694343;82;21098;-67
2023/04/18 07:48:46;;;;;;;4.43;3.97;;;;;;;19.43;71.98;100962.39;1724087;83;21679;-64
2023/04/18 07:51:13;;;;;;;5.95;4.33;;;;;;;20.64;69.16;100957.47;1693935;83;21604;-65
2023/04/18 07:53:46;;;;;;;5.20;4.05;;;;;;;21.70;66.38;100960.48;1691582;83;21015;-67
2023/04/18 07:56:11;;;;;;;4.75;4.12;;;;;;;22.74;67.57;100966.31;1683488;84;21135;-64
2023/04/18 07:58:37;;;;;;;5.17;4.20;;;;;;;22.85;65.62;100960.99;1722157;81;21061;-68
2023/04/18 08:01:04;;;;;;;4.72;4.33;;;;;;;23.54;64.69;100965.28;1718218;81;21120;-67
2023/04/18 08:03:33;;;;;;;7.83;4.17;;;;;;;24.18;60.75;100959.09;1721935;81;21100;-63
2023/04/18 08:06:01;;;;;;;5.22;3.47;;;;;;;24.08;64.45;100961.68;1720393;82;21060;-64
2023/04/18 08:08:27;;;;;;;4.75;4.35;;;;;;;24.42;65.09;100956.13;1720675;82;21088;-64
2023/04/18 08:10:54;;;;;;;4.92;4.50;;;;;;;24.38;64.37;100973.41;1723653;82;21040;-64
2023/04/18 08:13:20;;;;;;;4.42;4.03;;;;;;;24.26;61.55;100962.80;1724536;82;21040;-67
2023/04/18 08:15:47;;;;;;;6.08;4.05;;;;;;;24.57;63.66;100972.21;1722458;82;21021;-66
2023/04/18 08:18:13;;;;;;;3.90;3.50;;;;;;;25.27;61.96;100971.03;1722216;82;21025;-66
2023/04/18 08:20:40;;;;;;;5.15;3.42;;;;;;;26.42;64.01;100972.02;1723847;82;21755;-64
2023/04/18 08:23:07;;;;;;;3.75;3.40;;;;;;;27.98;63.16;100969.84;1701694;83;21045;-64
2023/04/18 08:25:35;;;;;;;3.95;3.55;;;;;;;28.90;60.99;100956.34;1723504;82;21036;-63
2023/04/18 08:28:04;;;;;;;4.20;3.80;;;;;;;29.75;60.39;100963.01;1696849;83;21185;-65
2023/04/18 08:30:30;;;;;;;4.22;3.83;;;;;;;30.51;59.78;100955.87;1698836;83;21017;-63
2023/04/18 08:33:01;;;;;;;4.25;3.52;;;;;;;30.83;54.64;100958.14;1696092;83;21064;-64
2023/04/18 08:35:34;;;;;;;5.00;3.62;;;;;;;30.72;57.18;100961.19;1719475;83;21021;-64
2023/04/18 08:38:03;;;;;;;4.25;3.80;;;;;;;29.73;53.68;100970.40;1699910;82;21534;-65
2023/04/18 08:40:32;;;;;;;6.08;4.10;;;;;;;29.15;48.86;100968.89;1699197;83;21074;-64
2023/04/18 08:43:03;;;;;;;5.10;3.72;;;;;;;28.30;50.93;100975.98;1723679;82;21032;-65
2023/04/18 08:45:30;;;;;;;3.47;3.17;;;;;;;28.14;51.82;100969.98;1697535;83;21578;-62
2023/04/18 08:48:00;;;;;;;6.17;3.65;;;;;;;27.44;49.30;100969.83;1756473;80;20974;-62
2023/04/18 08:50:26;;;;;;;5.00;4.35;;;;;;;25.31;47.72;100980.45;1758411;80;21049;-61
2023/04/18 08:52:54;;;;;;;4.67;4.28;;;;;;;23.09;46.74;100986.70;1757376;80;21036;-61
2023/04/18 08:55:24;;;;;;;4.42;4.03;;;;;;;22.88;47.91;100995.40;1759194;80;21037;-63
2023/04/18 08:57:55;;;;;;;4.97;4.47;;;;;;;23.75;48.87;100996.02;1758141;80;20986;-62
2023/04/18 09:00:22;;;;;;;4.85;3.83;;;;;;;24.26;45.27;101013.51;1755011;80;21053;-62
2023/04/18 09:02:53;;;;;;;6.12;4.70;;;;;;;23.13;45.18;101008.95;1751289;80;21038;-62
2023/04/18 09:05:18;;;;;;;5.05;4.35;;;;;;;22.32;43.02;101006.81;1761090;80;21013;-64
2023/04/18 09:07:48;;;;;;;4.30;3.90;;;;;;;22.82;46.61;100993.19;1756526;80;21174;-63
2023/04/18 09:10:33;;;;;;;6.33;4.33;;;;;;;23.64;44.71;100992.89;1753621;80;21057;-66
2023/04/18 09:13:02;;;;;;;4.70;4.20;;;;;;;24.06;43.36;101001.00;1732675;81;21060;-67
2023/04/18 09:15:29;;;;;;;5.67;3.95;;;;;;;23.90;43.60;100996.94;1760465;80;21675;-64
2023/04/18 09:18:01;;;;;;;4.25;3.85;;;;;;;23.71;44.21;101002.09;1739207;81;21052;-63
2023/04/18 09:20:40;;;;;;;5.78;3.98;;;;;;;23.21;42.31;100991.88;1757419;80;21053;-61
2023/04/18 09:23:13;;;;;;;16.25;5.10;;;;;;;23.87;44.85;100985.19;1755199;80;21003;-63
2023/04/18 09:25:47;;;;;;;4.00;3.25;;;;;;;24.99;44.14;100989.48;1740837;81;21172;-65
2023/04/18 09:28:39;;;;;;;6.20;3.72;;;;;;;25.34;42.40;100996.21;1756223;80;21575;-62
2023/04/18 09:31:11;;;;;;;5.80;3.90;;;;;;;23.14;41.33;100995.17;1735529;80;21057;-63
2023/04/18 09:33:43;;;;;;;11.35;4.55;;;;;;;21.83;42.66;100991.00;1758625;80;20978;-62
2023/04/18 09:36:21;;;;;;;5.15;3.77;;;;;;;23.30;43.28;100992.98;1757730;80;21579;-63
2023/04/18 09:38:49;;;;;;;3.80;3.40;;;;;;;25.02;43.78;100983.86;1756251;80;21105;-63
2023/04/18 09:41:16;;;;;;;4.92;3.47;;;;;;;26.38;42.86;100988.01;1758092;80;20993;-65
2023/04/18 09:43:48;;;;;;;4.22;3.35;;;;;;;27.51;43.35;100986.17;1758247;80;21097;-65
2023/04/18 09:46:30;;;;;;;;;;;;;;;;;;;;;
2023/04/18 09:48:55;;;;;;;4.05;3.47;;;;;;;29.68;41.52;100979.47;1721212;81;21045;-65
2023/04/18 09:51:28;;;;;;;5.90;3.75;;;;;;;28.69;38.74;100981.79;1734040;81;21068;-66
2023/04/18 09:53:59;;;;;;;4.58;3.67;;;;;;;28.21;39.77;100980.45;1730339;81;21626;-65
2023/04/18 09:56:30;;;;;;;4.47;3.77;;;;;;;28.47;36.28;100989.05;1708757;81;21076;-65
2023/04/18 09:59:03;;;;;;;3.35;3.05;;;;;;;28.08;37.69;100990.24;1736028;81;21127;-66
2023/04/18 10:01:32;;;;;;;5.15;4.00;;;;;;;25.93;35.37;100991.80;1697258;82;21060;-65
2023/04/18 10:04:02;;;;;;;4.85;3.72;;;;;;;23.85;35.77;100980.46;1725954;83;21063;-65
2023/04/18 10:06:32;;;;;;;3.95;3.35;;;;;;;23.17;36.70;100976.27;1759699;80;21108;-62
2023/04/18 10:09:01;;;;;;;4.22;3.70;;;;;;;24.70;36.12;100977.31;1758966;80;21083;-66
2023/04/18 10:11:36;;;;;;;4.45;3.87;;;;;;;24.24;35.49;100972.75;1754480;80;21017;-62
2023/04/18 10:14:12;;;;;;;6.22;4.10;;;;;;;25.15;36.76;100970.27;1710476;81;20991;-64
2023/04/18 10:16:44;;;;;;;3.85;3.42;;;;;;;24.90;34.52;100963.55;1754113;80;21373;-61
2023/04/18 10:19:25;;;;;;;4.78;3.70;;;;;;;25.70;36.38;100972.48;1754845;80;20987;-61
2023/04/18 10:21:56;;;;;;;4.53;3.60;;;;;;;25.55;35.45;100962.20;1735234;81;21076;-61
2023/04/18 10:24:55;;;;;;;5.03;3.67;;;;;;;25.78;36.70;100961.93;1755436;80;21083;-61
2023/04/18 10:27:48;;;;;;;4.53;3.42;;;;;;;26.84;35.73;100958.23;1755409;80;20974;-62
2023/04/18 10:30:15;;;;;;;5.62;3.50;;;;;;;27.54;35.25;100961.73;1758254;80;22354;-63
2023/04/18 10:32:42;;;;;;;8.33;3.90;;;;;;;26.52;35.35;100952.80;1732937;81;21026;-60
2023/04/18 10:35:10;;;;;;;3.60;3.30;;;;;;;27.61;35.41;100953.40;1757340;80;21553;-62
2023/04/18 10:37:53;;;;;;;3.37;3.08;;;;;;;28.70;34.79;100947.18;1755928;80;21490;-63
2023/04/18 10:40:35;;;;;;;3.50;3.20;;;;;;;29.53;35.27;100942.42;1752849;80;21073;-63
2023/04/18 10:43:01;;;;;;;4.08;3.65;;;;;;;30.41;34.84;100943.09;1754091;80;20998;-62
2023/04/18 10:45:30;;;;;;;;;;;;;;;31.22;34.80;100946.48;1763399;80;21069;-61
2023/04/18 10:48:26;;;;;;;3.30;2.90;;;;;;;31.20;33.26;100940.42;1761069;80;20266;-63
2023/04/18 10:51:15;;;;;;;3.30;3.00;;;;;;;31.92;34.11;100940.64;1757236;80;21045;-65
2023/04/18 10:54:01;;;;;;;6.53;3.50;;;;;;;33.17;33.59;100938.91;1758114;80;21548;-62
2023/04/18 10:56:28;;;;;;;3.77;3.02;;;;;;;33.05;32.99;100942.28;1638509;86;22269;-62
2023/04/18 10:58:58;;;;;;;5.35;3.33;;;;;;;33.98;34.26;100938.66;1640453;86;21681;-62
2023/04/18 11:01:27;;;;;;;3.17;2.50;;;;;;;35.36;33.25;100904.83;1637180;86;21750;-65
2023/04/18 11:03:56;;;;;;;3.20;2.90;;;;;;;36.53;32.79;100926.45;1633742;86;21109;-63
2023/04/18 11:06:27;;;;;;;3.22;2.80;;;;;;;35.53;30.00;100936.50;1640491;86;21674;-64
2023/04/18 11:09:08;;;;;;;2.90;2.70;;;;;;;31.68;29.07;100945.20;1636235;86;21095;-62
2023/04/18 11:11:35;;;;;;;5.60;3.17;;;;;;;31.11;31.00;100942.84;1633058;86;21560;-73
2023/04/18 11:14:04;;;;;;;3.65;3.30;;;;;;;31.97;27.31;100947.17;1636836;86;21072;-71
2023/04/18 11:16:38;;;;;;;14.07;4.40;;;;;;;30.14;28.45;100947.48;1639360;86;21212;-75
2023/04/18 11:19:24;;;;;;;5.90;3.72;;;;;;;28.42;27.91;100941.63;1639737;86;21085;-63
2023/04/18 11:21:54;;;;;;;4.30;3.92;;;;;;;27.51;29.04;100947.28;1631983;86;21148;-71
2023/04/18 11:24:23;;;;;;;3.87;3.58;;;;;;;29.07;28.47;100939.80;1637331;85;21036;-70
2023/04/18 11:26:52;;;;;;;4.00;3.70;;;;;;;27.35;26.79;100955.49;1634583;86;21140;-68